A- A+ FrançaisEnglishEspañol中国

Services sur Internet Soldes sur Internet Des idées de cadeaux Météo Météo aéro

La météo à : Autours de vous Tarbes-Lourdes-PyrénéesPau-PyrénéesPersan-Beaumont Toulouse-Blagnac

manche à air

La météo aéronautique pour les pilotes, la préparation du vol avec les METAR (METeorological Aerodrome Report, message d'observation des conditions météorologiques pour l'aviation) et Les TAF (Terminal Aerodrome Forecast : message de prévision à court terme des conditions météorologiques pour l'aviation). Et les autres ressources comme les VAC (Visual Approch Chart) et les NOTAM (Notice To Airman) pour préprer les vols.

Aéroport Puvernituq (Canada) / OACI CYPX/ IATA YPX

L'altitude de l'aéroport Puvernituq est de 23 m = 75 ft. Il est situé à proximité de Puvirnituq (Canada). La météo générale à 5 jours est disponible pour Puvirnituq situé à 1.9 km.

METAR de l'aéroport Puvernituq - CYPX

CYPX 071952Z AUTO 26004KT 1 3/4SM BR BKN006 OVC010 07/07 A2913 RMK SLP866

Décodage du METAR de l'aéroport Puvernituq (CA)

METAR émis par CYPX le lundi 7 octobre 2019 à 19:52 heure TU. C'est un METAR généré automatiquement. Attention ce METAR est obsolète car il a été émis il y a 14 heure et 16 minutes.

La visibilité est de 2.8 km = 1.75 sm.

La température est de 7°C = 45 °F et le point rosée est de 7°C = 45 °F . Ce qui correspond à 100% d'humidité relative.

Le QNH est de 986 hPa = 29.12 inHg

Vent de 4 kt = 7 km/h, orienté à 260°.

Nuages : Couverture nuageuse fragmentée à 600 ft = 180 mètres. Couverture nuageuse soudée à 1000 ft = 300 mètres.

BR

RMK SLP866

TAF de l'aéroport Puvernituq - CYPX

CYPX 150620Z 1506/1518 08008KT P6SM SCT006 OVC012 TEMPO 1506/1518 2SM -DZ BR OVC006 BECMG 1516/1518 07012KT RMK FCST BASED ON AUTO OBS. NXT FCST BY 151200Z

CYPX 150620Z 1506/1518 08008KT P6SM nuages épars à 006 couverture nuageuse soudée à 012 temporairement 1506/1518 2SM faible DZ brume couverture nuageuse soudée à 006 devenant 1516/1518 07012KT remarques trombe ST BASED ON AUTO OBS. NXT trombe ST BY 151200Z

Aéroport à proximité de Puvernituq

Météo générale à 5 jours à Puvirnituq (1.9 km)Aéroport Akulivik (98 km)Aéroport Inukjuak (181 km)Aéroport Salluit (252 km)Aéroport Ivujivik (265 km)Aéroport Kangiqsujjuaq Wakeham Bay (337 km)Aéroport Umiujaq (393 km)

Vue aérienne de l'aéroport Puvernituq

NOTAM de l'aéroport Puvernituq

Les NOTAM sont fournis sans aucune garantie de leur actualité. Le pilote est le seul responsable de la vérification de sa validité avant de l'utiliser opérationnellement pour préparer un vol ou l'utiliser lors de sa navigation.

Pas de NOTAM

Sources des données